createdAt,value
2023-08-17T00:00:57.318Z,98.58
2023-08-17T00:01:57.362Z,99.33
2023-08-17T00:02:57.311Z,99.52
2023-08-17T00:03:57.317Z,99.98
2023-08-17T00:04:57.287Z,99.99
2023-08-17T00:05:57.285Z,99.99
2023-08-17T00:06:57.277Z,99.99
2023-08-17T00:07:57.270Z,99.99
2023-08-17T00:08:57.267Z,99.99
2023-08-17T00:09:57.240Z,99.99
2023-08-17T00:10:57.253Z,99.99
2023-08-17T00:11:57.240Z,99.99
2023-08-17T00:12:57.213Z,99.99
2023-08-17T00:13:57.218Z,99.99
2023-08-17T00:14:57.211Z,99.99
2023-08-17T00:15:57.239Z,99.99
2023-08-17T00:16:57.213Z,99.99
2023-08-17T00:17:57.236Z,99.99
2023-08-17T00:18:57.203Z,99.99
2023-08-17T00:19:57.184Z,99.99
2023-08-17T00:20:57.186Z,99.99
2023-08-17T00:21:57.179Z,99.99
2023-08-17T00:22:57.165Z,99.99
2023-08-17T00:23:57.156Z,99.99
2023-08-17T00:24:57.155Z,99.99
2023-08-17T00:25:57.161Z,99.99
2023-08-17T00:26:57.143Z,99.99
2023-08-17T00:27:57.114Z,99.99
2023-08-17T00:28:57.127Z,99.99
2023-08-17T00:29:57.110Z,99.99
2023-08-17T00:30:57.114Z,99.99
2023-08-17T00:31:57.143Z,99.99
2023-08-17T00:32:57.150Z,99.99
2023-08-17T00:33:57.089Z,99.99
2023-08-17T00:34:57.076Z,99.99
2023-08-17T00:35:57.082Z,99.99
2023-08-17T00:36:57.112Z,99.99
2023-08-17T00:37:57.067Z,99.72
2023-08-17T00:38:57.050Z,99.99
2023-08-17T00:39:57.042Z,99.99
2023-08-17T00:40:57.028Z,99.99
2023-08-17T00:41:57.039Z,99.99
2023-08-17T00:42:57.053Z,99.72
2023-08-17T00:43:57.022Z,99.92
2023-08-17T00:44:57.021Z,99.72
2023-08-17T00:45:57.061Z,99.92
2023-08-17T00:46:57.009Z,99.92
2023-08-17T00:47:57.037Z,99.99
2023-08-17T00:48:57.014Z,99.99
2023-08-17T00:49:56.975Z,99.99
2023-08-17T00:50:56.968Z,99.99
2023-08-17T00:51:56.961Z,99.99
2023-08-17T00:52:57.005Z,99.99
2023-08-17T00:53:56.942Z,99.99
2023-08-17T00:54:56.934Z,99.99
2023-08-17T00:55:56.975Z,99.99
2023-08-17T00:56:56.925Z,99.99
2023-08-17T00:57:56.921Z,99.99
2023-08-17T00:58:56.900Z,99.99
2023-08-17T01:00:04.673Z,99.97
2023-08-17T01:00:58.911Z,99.99
2023-08-17T01:01:56.907Z,99.99
2023-08-17T01:02:56.931Z,99.99
2023-08-17T01:03:56.865Z,99.99
2023-08-17T01:04:56.911Z,99.99
2023-08-17T01:05:56.866Z,99.99
2023-08-17T01:06:56.863Z,99.97
2023-08-17T01:07:56.862Z,99.97
2023-08-17T01:08:56.854Z,99.99
2023-08-17T01:09:56.828Z,99.99
2023-08-17T01:10:56.834Z,99.87
2023-08-17T01:11:56.816Z,99.57
2023-08-17T01:12:56.835Z,99.72
2023-08-17T01:13:56.823Z,99.07
2023-08-17T01:14:56.807Z,98.57
2023-08-17T01:15:56.818Z,98.32
2023-08-17T01:16:56.800Z,97.61
2023-08-17T01:17:56.828Z,97.11
2023-08-17T01:18:56.865Z,97.31
2023-08-17T01:19:56.789Z,97.41
2023-08-17T01:20:56.768Z,97.31
2023-08-17T01:21:56.766Z,97.41
2023-08-17T01:22:56.771Z,96.97
2023-08-17T01:23:56.753Z,97.02
2023-08-17T01:24:56.759Z,97.02
2023-08-17T01:25:56.722Z,96.41
2023-08-17T01:26:56.728Z,95.97
2023-08-17T01:27:56.722Z,96.21
2023-08-17T01:28:56.718Z,97.11
2023-08-17T01:29:56.722Z,96.41
2023-08-17T01:30:56.733Z,97.21
2023-08-17T01:31:56.706Z,96.61
2023-08-17T01:32:56.718Z,97.06
2023-08-17T01:33:56.699Z,96.97
2023-08-17T01:34:56.681Z,96.87
2023-08-17T01:35:56.665Z,96.91
2023-08-17T01:36:56.655Z,97.06
2023-08-17T01:37:56.651Z,97.17
2023-08-17T01:38:56.678Z,97.06
2023-08-17T01:39:56.674Z,97.06
2023-08-17T01:40:56.630Z,97.06
2023-08-17T01:41:56.623Z,96.87
2023-08-17T01:42:56.629Z,97.17
2023-08-17T01:43:56.633Z,97.17
2023-08-17T01:44:56.620Z,96.17
2023-08-17T01:45:56.618Z,97.17
2023-08-17T01:46:56.629Z,96.17
2023-08-17T01:47:56.648Z,96.17
2023-08-17T01:48:56.580Z,96.06
2023-08-17T01:49:56.570Z,95.97
2023-08-17T01:50:56.564Z,95.56
2023-08-17T01:51:56.582Z,95.56
2023-08-17T01:52:56.561Z,95.47
2023-08-17T01:53:56.538Z,95.86
2023-08-17T01:54:56.540Z,95.56
2023-08-17T01:55:56.525Z,95.47
2023-08-17T01:56:56.517Z,95.36
2023-08-17T01:57:56.553Z,95.47
2023-08-17T01:58:56.506Z,95.32
2023-08-17T01:59:56.504Z,95.47
2023-08-17T02:00:56.519Z,94.96
2023-08-17T02:01:56.499Z,95.01
2023-08-17T02:02:56.546Z,94.76
2023-08-17T02:03:56.482Z,94.86
2023-08-17T02:04:56.471Z,95.06
2023-08-17T02:05:56.468Z,95.36
2023-08-17T02:06:56.460Z,94.96
2023-08-17T02:07:56.449Z,95.32
2023-08-17T02:08:56.950Z,95.36
2023-08-17T02:09:56.437Z,95.36
2023-08-17T02:10:56.428Z,95.26
2023-08-17T02:11:56.431Z,95.36
2023-08-17T02:13:02.145Z,95.47
2023-08-17T02:13:58.416Z,95.36
2023-08-17T02:14:56.407Z,95.36
2023-08-17T02:15:56.399Z,95.86
2023-08-17T02:16:56.451Z,96.47
2023-08-17T02:17:56.434Z,97.02
2023-08-17T02:18:56.377Z,97.11
2023-08-17T02:19:56.371Z,97.21
2023-08-17T02:20:56.356Z,97.31
2023-08-17T02:21:56.356Z,97.02
2023-08-17T02:22:56.357Z,96.41
2023-08-17T02:23:56.354Z,96.21
2023-08-17T02:24:56.329Z,95.91
2023-08-17T02:25:56.353Z,95.61
2023-08-17T02:26:56.327Z,95.86
2023-08-17T02:27:56.332Z,95.51
2023-08-17T02:28:56.308Z,95.86
2023-08-17T02:29:56.302Z,95.56
2023-08-17T02:30:56.368Z,95.66
2023-08-17T02:31:56.277Z,95.21
2023-08-17T02:32:56.325Z,95.06
2023-08-17T02:33:56.277Z,96.06
2023-08-17T02:34:56.270Z,97.11
2023-08-17T02:35:56.324Z,97.21
2023-08-17T02:36:56.247Z,97.36
2023-08-17T02:37:56.252Z,97.72
2023-08-17T02:38:56.266Z,97.61
2023-08-17T02:39:56.272Z,97.21
2023-08-17T02:40:56.220Z,96.91
2023-08-17T02:41:56.222Z,97.31
2023-08-17T02:42:56.192Z,97.37
2023-08-17T02:43:56.228Z,96.97
2023-08-17T02:44:56.187Z,97.06
2023-08-17T02:45:56.224Z,97.02
2023-08-17T02:46:56.177Z,97.06
2023-08-17T02:47:56.202Z,97.17
2023-08-17T02:48:56.173Z,96.11
2023-08-17T02:49:56.154Z,96.21
2023-08-17T02:50:56.165Z,96.01
2023-08-17T02:51:56.144Z,96.17
2023-08-17T02:52:56.134Z,96.17
2023-08-17T02:53:56.117Z,96.06
2023-08-17T02:54:56.128Z,96.17
2023-08-17T02:55:56.138Z,97.17
2023-08-17T02:56:56.102Z,97.02
2023-08-17T02:57:56.109Z,97.11
2023-08-17T02:58:56.088Z,96.97
2023-08-17T02:59:56.075Z,96.91
2023-08-17T03:00:56.092Z,97.31
2023-08-17T03:01:56.109Z,97.21
2023-08-17T03:02:56.084Z,97.31
2023-08-17T03:03:56.078Z,97.11
2023-08-17T03:04:56.056Z,97.02
2023-08-17T03:05:56.066Z,97.31
2023-08-17T03:06:56.033Z,97.31
2023-08-17T03:07:56.033Z,96.81
2023-08-17T03:08:56.009Z,97.02
2023-08-17T03:09:56.026Z,96.91
2023-08-17T03:10:55.998Z,96.21
2023-08-17T03:11:57.008Z,96.31
2023-08-17T03:12:55.981Z,95.91
2023-08-17T03:13:55.977Z,97.02
2023-08-17T03:14:55.982Z,97.11
2023-08-17T03:15:55.973Z,97.11
2023-08-17T03:16:55.983Z,97.02
2023-08-17T03:17:55.996Z,96.91
2023-08-17T03:18:55.936Z,97.21
2023-08-17T03:19:55.944Z,96.11
2023-08-17T03:20:55.933Z,97.02
2023-08-17T03:21:55.936Z,97.16
2023-08-17T03:22:55.908Z,96.91
2023-08-17T03:23:55.917Z,96.96
2023-08-17T03:24:56.010Z,97.16
2023-08-17T03:25:55.887Z,96.86
2023-08-17T03:26:55.883Z,97.36
2023-08-17T03:27:55.880Z,97.86
2023-08-17T03:28:55.872Z,97.86
2023-08-17T03:29:55.866Z,97.96
2023-08-17T03:30:55.918Z,98.36
2023-08-17T03:31:56.904Z,98.66
2023-08-17T03:32:56.880Z,98.97
2023-08-17T03:33:55.832Z,99.32
2023-08-17T03:34:55.853Z,99.11
2023-08-17T03:35:55.848Z,99.71
2023-08-17T03:36:55.980Z,99.76
2023-08-17T03:37:55.821Z,99.99
2023-08-17T03:38:55.806Z,99.99
2023-08-17T03:39:55.815Z,99.71
2023-08-17T03:40:55.804Z,99.99
2023-08-17T03:41:55.795Z,99.99
2023-08-17T03:42:55.785Z,99.66
2023-08-17T03:43:55.769Z,99.99
2023-08-17T03:44:55.762Z,99.99
2023-08-17T03:45:55.805Z,99.99
2023-08-17T03:46:55.758Z,99.52
2023-08-17T03:47:55.769Z,99.52
2023-08-17T03:48:55.735Z,98.41
2023-08-17T03:49:55.736Z,98.31
2023-08-17T03:50:55.744Z,98.26
2023-08-17T03:51:55.734Z,97.91
2023-08-17T03:52:55.714Z,98.26
2023-08-17T03:53:55.693Z,97.76
2023-08-17T03:54:55.701Z,97.41
2023-08-17T03:55:55.712Z,97.20
2023-08-17T03:56:55.678Z,97.91
2023-08-17T03:57:55.668Z,97.71
2023-08-17T03:58:55.664Z,98.51
2023-08-17T03:59:55.658Z,99.46
2023-08-17T04:00:55.674Z,99.16
2023-08-17T04:01:55.667Z,99.36
2023-08-17T04:02:55.676Z,99.26
2023-08-17T04:03:55.629Z,99.76
2023-08-17T04:04:55.695Z,99.96
2023-08-17T04:05:55.640Z,99.76
2023-08-17T04:06:55.896Z,99.99
2023-08-17T04:07:55.617Z,99.99
2023-08-17T04:08:55.603Z,99.96
2023-08-17T04:09:55.596Z,99.76
2023-08-17T04:10:55.600Z,99.99
2023-08-17T04:11:55.575Z,99.96
2023-08-17T04:12:55.575Z,99.76
2023-08-17T04:13:55.578Z,99.99
2023-08-17T04:14:55.565Z,99.99
2023-08-17T04:15:55.622Z,99.99
2023-08-17T04:16:55.626Z,99.99
2023-08-17T04:17:55.659Z,99.99
2023-08-17T04:18:55.623Z,99.99
2023-08-17T04:19:55.528Z,99.99
2023-08-17T04:20:55.745Z,99.99
2023-08-17T04:21:55.524Z,99.99
2023-08-17T04:22:55.519Z,99.99
2023-08-17T04:23:55.507Z,99.99
2023-08-17T04:24:55.493Z,99.99
2023-08-17T04:25:55.477Z,99.99
2023-08-17T04:26:55.471Z,99.99
2023-08-17T04:27:55.485Z,99.99
2023-08-17T04:28:55.484Z,99.99
2023-08-17T04:29:55.452Z,99.99
2023-08-17T04:30:55.449Z,99.99
2023-08-17T04:31:55.502Z,99.51
2023-08-17T04:32:55.486Z,99.21
2023-08-17T04:33:55.516Z,99.41
2023-08-17T04:34:55.432Z,99.41
2023-08-17T04:35:55.423Z,99.71
2023-08-17T04:36:55.399Z,99.71
2023-08-17T04:37:55.396Z,99.91
2023-08-17T04:38:55.413Z,99.51
2023-08-17T04:39:55.390Z,99.91
2023-08-17T04:40:55.544Z,99.81
2023-08-17T04:41:55.392Z,99.71
2023-08-17T04:42:55.370Z,99.99
2023-08-17T04:43:55.352Z,99.51
2023-08-17T04:44:55.354Z,99.41
2023-08-17T04:45:55.390Z,99.31
2023-08-17T04:46:55.340Z,99.71
2023-08-17T04:47:55.346Z,99.99
2023-08-17T04:48:55.323Z,99.99
2023-08-17T04:49:55.326Z,99.99
2023-08-17T04:50:55.304Z,99.99
2023-08-17T04:51:55.319Z,99.99
2023-08-17T04:52:55.329Z,99.99
2023-08-17T04:53:55.337Z,99.99
2023-08-17T04:54:55.329Z,99.99
2023-08-17T04:55:55.292Z,99.99
2023-08-17T04:56:55.271Z,99.99
2023-08-17T04:57:55.277Z,99.99
2023-08-17T04:58:55.287Z,99.99
2023-08-17T04:59:55.285Z,99.99
2023-08-17T05:00:55.336Z,99.99
2023-08-17T05:01:55.236Z,99.86
2023-08-17T05:02:55.334Z,99.99
2023-08-17T05:03:55.288Z,99.99
2023-08-17T05:04:55.226Z,99.99
2023-08-17T05:05:55.227Z,99.99
2023-08-17T05:06:55.206Z,99.99
2023-08-17T05:07:55.211Z,99.99
2023-08-17T05:08:55.220Z,99.99
2023-08-17T05:09:55.181Z,99.99
2023-08-17T05:10:55.225Z,99.99
2023-08-17T05:11:55.175Z,99.99
2023-08-17T05:12:55.172Z,99.99
2023-08-17T05:13:55.172Z,99.99
2023-08-17T05:14:55.186Z,99.99
2023-08-17T05:15:55.236Z,99.99
2023-08-17T05:16:55.142Z,99.96
2023-08-17T05:17:55.200Z,99.99
2023-08-17T05:18:55.142Z,99.99
2023-08-17T05:19:55.129Z,99.99
2023-08-17T05:20:55.122Z,99.99
2023-08-17T05:21:55.125Z,99.99
2023-08-17T05:22:55.108Z,99.99
2023-08-17T05:23:55.098Z,99.99
2023-08-17T05:24:55.086Z,99.99
2023-08-17T05:25:55.159Z,99.99
2023-08-17T05:26:55.081Z,99.99
2023-08-17T05:27:55.074Z,99.99
2023-08-17T05:28:55.072Z,99.99
2023-08-17T05:29:55.066Z,99.99
2023-08-17T05:30:55.092Z,99.99
2023-08-17T05:31:55.053Z,99.99
2023-08-17T05:32:55.110Z,99.99
2023-08-17T05:33:55.050Z,99.99
2023-08-17T05:34:55.017Z,99.99
2023-08-17T05:35:56.054Z,99.99
2023-08-17T05:36:55.008Z,99.99
2023-08-17T05:37:55.037Z,99.99
2023-08-17T05:38:54.995Z,99.99
2023-08-17T05:39:55.000Z,99.99
2023-08-17T05:40:56.004Z,99.99
2023-08-17T05:41:54.971Z,99.99
2023-08-17T05:42:54.982Z,99.99
2023-08-17T05:43:54.965Z,99.99
2023-08-17T05:44:54.968Z,99.99
2023-08-17T05:45:54.949Z,99.99
2023-08-17T05:46:55.022Z,99.99
2023-08-17T05:47:55.041Z,99.99
2023-08-17T05:48:55.182Z,99.99
2023-08-17T05:49:54.937Z,99.71
2023-08-17T05:50:55.202Z,99.76
2023-08-17T05:51:55.531Z,99.46
2023-08-17T05:52:56.624Z,99.46
2023-08-17T05:53:55.928Z,98.76
2023-08-17T05:54:54.888Z,98.96
2023-08-17T05:55:54.889Z,98.86
2023-08-17T05:56:54.918Z,98.46
2023-08-17T05:57:54.864Z,98.05
2023-08-17T05:58:54.877Z,97.96
2023-08-17T05:59:54.883Z,98.25
2023-08-17T06:00:54.862Z,98.46
2023-08-17T06:01:54.870Z,98.96
2023-08-17T06:02:54.890Z,98.46
2023-08-17T06:03:54.891Z,98.46
2023-08-17T06:04:54.823Z,98.76
2023-08-17T06:05:55.394Z,98.71
2023-08-17T06:06:54.821Z,98.66
2023-08-17T06:07:54.841Z,98.36
2023-08-17T06:08:54.791Z,98.56
2023-08-17T06:09:54.799Z,99.36
2023-08-17T06:10:54.787Z,99.26
2023-08-17T06:11:54.795Z,99.61
2023-08-17T06:12:54.864Z,99.99
2023-08-17T06:13:54.762Z,99.81
2023-08-17T06:14:54.764Z,99.99
2023-08-17T06:15:57.784Z,99.81
2023-08-17T06:16:54.808Z,99.99
2023-08-17T06:17:54.756Z,99.99
2023-08-17T06:18:54.730Z,99.99
2023-08-17T06:19:54.716Z,99.99
2023-08-17T06:20:54.823Z,99.91
2023-08-17T06:21:54.711Z,99.99
2023-08-17T06:22:54.720Z,99.99
2023-08-17T06:23:54.704Z,99.99
2023-08-17T06:24:54.690Z,99.99
2023-08-17T06:25:54.691Z,99.99
2023-08-17T06:26:54.675Z,99.99
2023-08-17T06:27:54.667Z,99.99
2023-08-17T06:28:54.661Z,99.99
2023-08-17T06:29:54.652Z,99.99
2023-08-17T06:30:54.679Z,99.99
2023-08-17T06:31:54.646Z,99.99
2023-08-17T06:32:54.655Z,99.99
2023-08-17T06:33:54.631Z,99.99
2023-08-17T06:34:54.633Z,99.99
2023-08-17T06:35:54.611Z,99.99
2023-08-17T06:36:54.633Z,99.99
2023-08-17T06:37:54.587Z,99.99
2023-08-17T06:38:55.612Z,99.99
2023-08-17T06:39:54.584Z,99.99
2023-08-17T06:40:54.595Z,99.99
2023-08-17T06:41:54.600Z,99.99
2023-08-17T06:42:54.577Z,99.99
2023-08-17T06:43:54.560Z,99.99
2023-08-17T06:44:54.582Z,99.99
2023-08-17T06:45:54.580Z,99.99
2023-08-17T06:46:54.550Z,99.99
2023-08-17T06:47:54.546Z,99.99
2023-08-17T06:48:54.523Z,99.99
2023-08-17T06:49:54.529Z,99.99
2023-08-17T06:50:54.534Z,99.99
2023-08-17T06:51:54.518Z,99.99
2023-08-17T06:52:54.520Z,99.99
2023-08-17T06:53:54.496Z,99.96
2023-08-17T06:54:54.491Z,99.99
2023-08-17T06:55:54.527Z,99.99
2023-08-17T06:56:54.471Z,99.76
2023-08-17T06:57:54.456Z,99.66
2023-08-17T06:58:54.460Z,99.36
2023-08-17T06:59:54.455Z,99.16
2023-08-17T07:00:54.456Z,99.36
2023-08-17T07:01:54.508Z,99.99
2023-08-17T07:02:57.003Z,99.99
2023-08-17T07:03:55.424Z,99.99
2023-08-17T07:04:54.449Z,99.99
2023-08-17T07:05:54.432Z,99.66
2023-08-17T07:06:54.406Z,99.91
2023-08-17T07:07:55.408Z,99.56
2023-08-17T07:08:54.425Z,99.36
2023-08-17T07:09:54.385Z,99.56
2023-08-17T07:10:54.408Z,99.06
2023-08-17T07:11:54.375Z,99.71
2023-08-17T07:12:54.366Z,99.52
2023-08-17T07:13:54.358Z,99.07
2023-08-17T07:14:54.358Z,99.07
2023-08-17T07:15:54.372Z,97.86
2023-08-17T07:16:54.357Z,97.76
2023-08-17T07:17:54.353Z,97.71
2023-08-17T07:18:54.325Z,98.16
2023-08-17T07:20:14.608Z,98.16
2023-08-17T07:20:58.839Z,98.26
2023-08-17T07:21:54.336Z,98.36
2023-08-17T07:22:54.299Z,97.96
2023-08-17T07:23:54.308Z,97.76
2023-08-17T07:24:54.279Z,97.76
2023-08-17T07:25:54.321Z,97.86
2023-08-17T07:26:54.283Z,97.72
2023-08-17T07:27:54.257Z,97.86
2023-08-17T07:28:54.268Z,97.81
2023-08-17T07:29:54.273Z,97.41
2023-08-17T07:30:54.259Z,97.02
2023-08-17T07:31:54.272Z,96.01
2023-08-17T07:32:54.307Z,97.11
2023-08-17T07:33:54.221Z,97.06
2023-08-17T07:34:54.214Z,97.02
2023-08-17T07:35:54.219Z,96.12
2023-08-17T07:36:54.204Z,95.37
2023-08-17T07:38:07.253Z,94.82
2023-08-17T07:38:56.188Z,93.43
2023-08-17T07:39:54.198Z,92.82
2023-08-17T07:40:54.164Z,93.32
2023-08-17T07:41:54.189Z,93.48
2023-08-17T07:42:54.174Z,92.63
2023-08-17T07:43:54.141Z,92.49
2023-08-17T07:44:54.159Z,91.69
2023-08-17T07:45:54.167Z,90.05
2023-08-17T07:46:54.124Z,89.75
2023-08-17T07:47:54.170Z,88.10
2023-08-17T07:48:54.402Z,88.81
2023-08-17T07:49:54.110Z,88.60
2023-08-17T07:50:54.096Z,88.10
2023-08-17T07:51:54.087Z,88.37
2023-08-17T07:52:54.083Z,87.62
2023-08-17T07:53:54.101Z,87.82
2023-08-17T07:54:54.076Z,87.52
2023-08-17T07:55:56.116Z,86.68
2023-08-17T07:56:54.103Z,86.58
2023-08-17T07:57:54.069Z,86.49
2023-08-17T07:58:54.044Z,86.64
2023-08-17T07:59:54.045Z,87.04
2023-08-17T08:00:54.029Z,86.34
2023-08-17T08:01:54.074Z,86.90
2023-08-17T08:02:54.095Z,87.00
2023-08-17T08:03:54.037Z,86.36
2023-08-17T08:04:54.065Z,85.36
2023-08-17T08:05:53.997Z,85.62
2023-08-17T08:06:53.990Z,84.43
2023-08-17T08:07:54.001Z,85.58
2023-08-17T08:08:53.994Z,83.89
2023-08-17T08:09:53.976Z,84.48
2023-08-17T08:10:53.962Z,83.19
2023-08-17T08:11:53.958Z,83.79
2023-08-17T08:12:53.953Z,82.79
2023-08-17T08:13:53.971Z,82.59
2023-08-17T08:14:53.943Z,82.59
2023-08-17T08:15:53.965Z,83.00
2023-08-17T08:16:53.943Z,83.59
2023-08-17T08:17:53.957Z,83.15
2023-08-17T08:18:54.222Z,82.95
2023-08-17T08:19:53.925Z,82.16
2023-08-17T08:20:53.900Z,82.00
2023-08-17T08:21:53.893Z,80.71
2023-08-17T08:22:53.885Z,81.90
2023-08-17T08:23:53.880Z,82.59
2023-08-17T08:24:53.911Z,81.90
2023-08-17T08:25:53.864Z,82.04
2023-08-17T08:26:53.868Z,82.20
2023-08-17T08:27:53.869Z,81.80
2023-08-17T08:28:53.841Z,82.89
2023-08-17T08:29:53.840Z,82.79
2023-08-17T08:30:53.870Z,82.70
2023-08-17T08:31:53.834Z,82.64
2023-08-17T08:32:53.868Z,82.29
2023-08-17T08:33:53.813Z,82.29
2023-08-17T08:34:53.813Z,82.20
2023-08-17T08:35:53.833Z,80.65
2023-08-17T08:36:53.804Z,82.04
2023-08-17T08:37:53.794Z,82.28
2023-08-17T08:38:53.806Z,82.84
2023-08-17T08:39:53.782Z,82.84
2023-08-17T08:40:53.779Z,82.34
2023-08-17T08:41:53.781Z,82.14
2023-08-17T08:42:53.772Z,82.64
2023-08-17T08:43:53.746Z,82.43
2023-08-17T08:44:53.879Z,81.30
2023-08-17T08:45:53.807Z,82.29
2023-08-17T08:46:53.779Z,82.59
2023-08-17T08:47:53.772Z,81.80
2023-08-17T08:48:53.716Z,82.16
2023-08-17T08:49:53.717Z,81.46
2023-08-17T08:50:53.710Z,81.26
2023-08-17T08:51:53.743Z,78.28
2023-08-17T08:52:53.688Z,79.17
2023-08-17T08:53:53.700Z,81.16
2023-08-17T08:54:53.670Z,81.06
2023-08-17T08:55:53.671Z,81.23
2023-08-17T08:56:53.659Z,81.42
2023-08-17T08:57:53.674Z,79.14
2023-08-17T08:58:54.834Z,80.73
2023-08-17T08:59:58.240Z,80.59
2023-08-17T09:00:54.670Z,77.51
2023-08-17T09:01:53.656Z,78.84
2023-08-17T09:02:53.685Z,79.10
2023-08-17T09:03:53.624Z,76.51
2023-08-17T09:04:53.637Z,76.85
2023-08-17T09:05:53.605Z,79.03
2023-08-17T09:06:53.598Z,78.24
2023-08-17T09:07:53.605Z,78.44
2023-08-17T09:08:53.603Z,78.54
2023-08-17T09:09:53.578Z,80.03
2023-08-17T09:10:53.576Z,79.00
2023-08-17T09:11:53.574Z,79.10
2023-08-17T09:12:53.966Z,77.01
2023-08-17T09:13:54.039Z,76.81
2023-08-17T09:14:57.317Z,76.72
2023-08-17T09:15:54.531Z,77.97
2023-08-17T09:16:53.594Z,77.47
2023-08-17T09:17:53.556Z,76.48
2023-08-17T09:18:53.538Z,75.95
2023-08-17T09:19:53.517Z,78.03
2023-08-17T09:20:53.534Z,76.61
2023-08-17T09:21:53.507Z,78.39
2023-08-17T09:22:54.512Z,76.86
2023-08-17T09:23:58.884Z,72.60
2023-08-17T09:24:54.496Z,72.20
2023-08-17T09:25:53.483Z,73.33
2023-08-17T09:26:53.485Z,74.26
2023-08-17T09:27:53.463Z,75.09
2023-08-17T09:28:53.449Z,74.89
2023-08-17T09:29:53.448Z,75.78
2023-08-17T09:30:53.517Z,76.28
2023-08-17T09:31:53.432Z,75.88
2023-08-17T09:32:53.474Z,76.64
2023-08-17T09:33:53.409Z,76.34
2023-08-17T09:34:53.395Z,74.46
2023-08-17T09:35:58.407Z,75.91
2023-08-17T09:36:55.384Z,76.10
2023-08-17T09:37:53.392Z,75.01
2023-08-17T09:38:53.387Z,75.08
2023-08-17T09:39:53.371Z,74.68
2023-08-17T09:40:53.362Z,75.34
2023-08-17T09:41:53.351Z,73.55
2023-08-17T09:42:53.354Z,73.06
2023-08-17T09:43:53.378Z,72.10
2023-08-17T09:44:53.351Z,72.63
2023-08-17T09:45:53.326Z,73.53
2023-08-17T09:46:53.360Z,74.22
2023-08-17T09:47:53.344Z,73.72
2023-08-17T09:48:53.299Z,74.35
2023-08-17T09:49:53.290Z,73.96
2023-08-17T09:50:53.296Z,74.69
2023-08-17T09:51:53.270Z,74.79
2023-08-17T09:52:53.281Z,74.59
2023-08-17T09:53:53.286Z,74.59
2023-08-17T09:54:53.266Z,76.08
2023-08-17T09:55:53.247Z,76.44
2023-08-17T09:56:53.244Z,76.61
2023-08-17T09:57:53.290Z,75.81
2023-08-17T09:58:53.221Z,74.82
2023-08-17T09:59:55.800Z,74.78
2023-08-17T10:00:54.236Z,74.68
2023-08-17T10:02:54.230Z,74.55
2023-08-17T10:03:53.182Z,74.71
2023-08-17T10:04:53.240Z,74.11
2023-08-17T10:05:55.663Z,73.12
2023-08-17T10:06:54.305Z,72.53
2023-08-17T10:07:53.177Z,72.73
2023-08-17T10:08:53.164Z,71.57
2023-08-17T10:09:53.151Z,72.89
2023-08-17T10:10:56.442Z,73.63
2023-08-17T10:11:55.738Z,74.52
2023-08-17T10:12:54.127Z,75.12
2023-08-17T10:13:53.116Z,75.81
2023-08-17T10:14:53.108Z,74.72
2023-08-17T10:15:53.112Z,76.01
2023-08-17T10:16:53.134Z,75.71
2023-08-17T10:17:55.792Z,76.01
2023-08-17T10:18:54.095Z,74.38
2023-08-17T10:19:53.193Z,73.72
2023-08-17T10:20:53.078Z,74.42
2023-08-17T10:21:53.054Z,75.84
2023-08-17T10:22:53.720Z,76.18
2023-08-17T10:23:54.975Z,77.25
2023-08-17T10:24:54.037Z,78.78
2023-08-17T10:25:53.051Z,79.87
2023-08-17T10:26:54.886Z,78.97
2023-08-17T10:28:00.067Z,78.67
2023-08-17T10:28:54.009Z,79.11
2023-08-17T10:29:53.003Z,78.81
2023-08-17T10:30:53.021Z,79.61
2023-08-17T10:31:53.022Z,80.00
2023-08-17T10:32:53.046Z,79.71
2023-08-17T10:33:52.965Z,80.60
2023-08-17T10:34:53.016Z,79.85
2023-08-17T10:35:52.960Z,80.21
2023-08-17T10:36:52.958Z,80.41
2023-08-17T10:37:52.954Z,79.67
2023-08-17T10:38:52.926Z,78.48
2023-08-17T10:39:52.921Z,78.81
2023-08-17T10:40:52.985Z,79.21
2023-08-17T10:41:52.906Z,79.55
2023-08-17T10:42:52.934Z,79.94
2023-08-17T10:43:52.909Z,80.35
2023-08-17T10:44:52.881Z,80.90
2023-08-17T10:45:52.897Z,80.35
2023-08-17T10:46:52.884Z,80.51
2023-08-17T10:47:52.923Z,80.11
2023-08-17T10:48:52.858Z,79.27
2023-08-17T10:49:52.857Z,78.67
2023-08-17T10:50:52.842Z,79.21
2023-08-17T10:51:52.845Z,79.91
2023-08-17T10:52:52.846Z,79.51
2023-08-17T10:53:52.826Z,79.81
2023-08-17T10:54:52.853Z,79.81
2023-08-17T10:55:53.306Z,80.21
2023-08-17T10:56:53.808Z,80.24
2023-08-17T10:57:52.808Z,80.30
2023-08-17T10:58:52.804Z,80.60
2023-08-17T10:59:52.793Z,80.65
2023-08-17T11:00:52.774Z,80.94
2023-08-17T11:01:52.849Z,81.20
2023-08-17T11:02:52.821Z,81.56
2023-08-17T11:03:52.772Z,79.73
2023-08-17T11:04:52.775Z,79.60
2023-08-17T11:05:52.735Z,79.39
2023-08-17T11:06:52.760Z,79.06
2023-08-17T11:07:52.740Z,76.48
2023-08-17T11:08:52.752Z,76.44
2023-08-17T11:09:52.721Z,76.21
2023-08-17T11:10:52.703Z,75.57
2023-08-17T11:11:52.701Z,76.43
2023-08-17T11:12:53.469Z,74.21
2023-08-17T11:13:56.711Z,74.11
2023-08-17T11:14:53.672Z,73.42
2023-08-17T11:15:52.708Z,73.15
2023-08-17T11:16:52.666Z,73.74
2023-08-17T11:17:52.678Z,71.86
2023-08-17T11:18:52.740Z,71.77
2023-08-17T11:19:52.648Z,72.33
2023-08-17T11:20:52.629Z,70.15
2023-08-17T11:21:52.622Z,71.73
2023-08-17T11:22:52.646Z,72.62
2023-08-17T11:23:52.642Z,72.22
2023-08-17T11:24:52.623Z,70.51
2023-08-17T11:25:52.603Z,69.95
2023-08-17T11:26:52.599Z,70.78
2023-08-17T11:27:52.587Z,71.60
2023-08-17T11:28:52.589Z,71.57
2023-08-17T11:29:52.572Z,71.77
2023-08-17T11:30:52.566Z,71.34
2023-08-17T11:31:52.581Z,73.11
2023-08-17T11:32:54.120Z,71.89
2023-08-17T11:33:55.738Z,69.12
2023-08-17T11:35:53.537Z,70.97
2023-08-17T11:36:52.576Z,69.78
2023-08-17T11:37:52.521Z,69.65
2023-08-17T11:38:52.510Z,69.85
2023-08-17T11:39:52.528Z,68.07
2023-08-17T11:40:52.490Z,66.78
2023-08-17T11:41:52.522Z,67.94
2023-08-17T11:42:52.475Z,68.33
2023-08-17T11:43:52.473Z,66.95
2023-08-17T11:44:52.480Z,66.85
2023-08-17T11:45:52.509Z,67.54
2023-08-17T11:46:52.460Z,68.10
2023-08-17T11:47:52.514Z,67.11
2023-08-17T11:48:52.472Z,66.92
2023-08-17T11:49:54.778Z,67.61
2023-08-17T11:50:52.440Z,67.91
2023-08-17T11:51:52.424Z,66.72
2023-08-17T11:52:52.470Z,66.63
2023-08-17T11:53:52.441Z,65.83
2023-08-17T11:54:52.631Z,66.52
2023-08-17T11:56:53.391Z,66.92
2023-08-17T11:57:52.384Z,66.72
2023-08-17T11:58:52.391Z,66.59
2023-08-17T11:59:52.404Z,65.08
2023-08-17T12:00:53.088Z,65.97
2023-08-17T12:01:52.383Z,66.27
2023-08-17T12:02:52.401Z,65.44
2023-08-17T12:03:52.393Z,65.84
2023-08-17T12:04:52.354Z,63.34
2023-08-17T12:05:52.361Z,65.91
2023-08-17T12:06:52.330Z,65.41
2023-08-17T12:07:52.327Z,65.38
2023-08-17T12:08:52.343Z,64.76
2023-08-17T12:09:52.311Z,62.88
2023-08-17T12:10:52.300Z,62.92
2023-08-17T12:11:52.327Z,61.57
2023-08-17T12:12:52.328Z,63.24
2023-08-17T12:13:52.316Z,65.01
2023-08-17T12:14:52.283Z,64.49
2023-08-17T12:15:52.320Z,64.95
2023-08-17T12:16:52.275Z,64.07
2023-08-17T12:17:52.300Z,62.24
2023-08-17T12:18:52.271Z,62.99
2023-08-17T12:19:53.250Z,65.71
2023-08-17T12:20:52.239Z,61.16
2023-08-17T12:21:52.287Z,61.60
2023-08-17T12:22:52.256Z,60.91
2023-08-17T12:23:52.238Z,60.39
2023-08-17T12:24:52.255Z,59.70
2023-08-17T12:25:52.219Z,56.57
2023-08-17T12:26:53.788Z,56.67
2023-08-17T12:27:53.206Z,55.91
2023-08-17T12:28:52.197Z,56.52
2023-08-17T12:29:52.204Z,57.63
2023-08-17T12:30:52.198Z,58.22
2023-08-17T12:31:52.179Z,57.76
2023-08-17T12:32:52.240Z,58.28
2023-08-17T12:33:52.159Z,60.53
2023-08-17T12:34:52.164Z,59.92
2023-08-17T12:35:52.191Z,59.79
2023-08-17T12:36:52.145Z,57.92
2023-08-17T12:37:52.124Z,59.59
2023-08-17T12:38:52.116Z,58.12
2023-08-17T12:39:52.135Z,60.55
2023-08-17T12:40:52.120Z,58.68
2023-08-17T12:41:52.103Z,59.63
2023-08-17T12:42:52.107Z,58.43
2023-08-17T12:43:52.095Z,58.04
2023-08-17T12:44:52.088Z,59.67
2023-08-17T12:45:52.120Z,56.71
2023-08-17T12:46:52.097Z,56.90
2023-08-17T12:47:52.096Z,55.82
2023-08-17T12:48:52.060Z,57.10
2023-08-17T12:49:52.116Z,55.92
2023-08-17T12:50:52.057Z,55.73
2023-08-17T12:51:52.026Z,55.82
2023-08-17T12:52:52.030Z,56.12
2023-08-17T12:53:52.030Z,54.06
2023-08-17T12:54:52.906Z,56.30
2023-08-17T12:55:56.099Z,56.03